Terminal Aerodrome Forecast
Issued by NWS

Home | Current Version | Previous Version | Text Only | Print | Product List | Glossary On
Versions: 1 2 3 4 5 6 7 8 9 10 11 12 13 14 15 16 17
000
FTUS41 KCLE 292340
TAFFDY
TAF
KFDY 292340Z 3000/3024 23005KT P6SM VCSH BKN060 OVC120
      TEMPO 3000/3004 5SM -SHRA BKN045 OVC080
     FM300400 16004KT P6SM VCTS BKN040CB OVC080
     FM300800 17003KT 4SM BR BKN040 OVC070
     FM301400 22006KT 6SM HZ BKN045
     FM301900 23007KT P6SM SCT050=

USA.gov is the U.S. government's official web portal to all federal, state and local government web resources and services.